Jimmy P Lafont — WYT9490 — position and weather

sailwx.info

Track history (hours):
 
Tides and Currents Weather Stations Pressure Air Temp Water Temp Dewpoint Dewpoint Depression Visibility Wind Speed Wind Dir Waves Ship Positions

Jimmy P Lafont

Owner: CALLAIS & SONS INC, CUTOFF, LA. More information available from US FCC via Universal Licensing System and Coast Guard Vessel Documentation Center.

Last reported at 2018-Apr-23 14:46 UTC. Time now 2018-Apr-24 02:45 UTC.
Position N 29°46' W 095°05'.

Length 21 m; draft 2.7 m.

Type: . MMSI: 367005230.

Date/timePositionNaut miles runAvg speedWind from/ knotsBaromVisibWave heightAir tempDewpointWater temp
2018-Apr-23 14:46N 29°46' W 095°05'0 0.0
2018-Apr-23 02:18N 29°46' W 095°05'0 0.7
2018-Apr-23 01:57N 29°46' W 095°06'0 0.0
2018-Apr-21 23:40N 29°46' W 095°05'1 6.0
2018-Apr-21 23:30N 29°47' W 095°04'0 0.0
2018-Apr-21 05:33N 29°46' W 095°05'3 4.1
2018-Apr-21 04:54N 29°44' W 095°07'2 4.4
2018-Apr-21 04:29N 29°44' W 095°09'2 3.7
2018-Apr-21 03:54N 29°45' W 095°11'2 3.7
2018-Apr-21 03:20N 29°43' W 095°13'3 0.1
2018-Apr-19 23:35N 29°44' W 095°10'0 4.8
2018-Apr-19 23:30N 29°44' W 095°09'2 4.6
2018-Apr-19 22:59N 29°44' W 095°07'2 5.1
2018-Apr-19 22:30N 29°46' W 095°05'1 0.1
2018-Apr-19 17:27N 29°47' W 095°04'1 0.2
2018-Apr-19 08:15N 29°46' W 095°06'1 4.0
2018-Apr-19 07:59N 29°47' W 095°05'1 0.2
2018-Apr-18 23:52N 29°45' W 095°06'0 0.1
2018-Apr-18 22:18N 29°45' W 095°06'1 0.1
2018-Apr-18 17:38N 29°46' W 095°05'1 5.0
2018-Apr-18 17:30N 29°46' W 095°05'1 1.4
2018-Apr-18 16:52N 29°47' W 095°04'0 0.0
2018-Apr-18 15:45N 29°47' W 095°04'0 0.0
2018-Apr-18 12:22N 29°47' W 095°04'2 0.2
2018-Apr-18 04:59N 29°46' W 095°05'3 6.4
2018-Apr-18 04:28N 29°44' W 095°09'3 6.2
2018-Apr-18 04:00N 29°44' W 095°12'0 0.0
2018-Apr-18 00:46N 29°45' W 095°12'2 4.6
2018-Apr-18 00:19N 29°44' W 095°09'2 3.7
2018-Apr-17 23:54N 29°44' W 095°08'2 5.2
2018-Apr-17 23:30N 29°45' W 095°06'2 4.3
2018-Apr-17 23:00N 29°47' W 095°04'0 0.3
2018-Apr-17 21:16N 29°47' W 095°04'1 3.3
2018-Apr-17 21:00N 29°47' W 095°05'1 0.3
2018-Apr-17 17:04N 29°46' W 095°06'0 0.3
2018-Apr-17 16:55N 29°46' W 095°06'0 0.1
2018-Apr-17 16:27N 29°46' W 095°06'2 3.6
2018-Apr-17 16:00N 29°44' W 095°07'3 5.2
2018-Apr-17 15:29N 29°45' W 095°10'4 4.6
2018-Apr-17 14:43N 29°44' W 095°14'0 0.0
2018-Apr-17 14:22N 29°44' W 095°14'2 3.0
2018-Apr-17 13:46N 29°45' W 095°12'2 6.0
2018-Apr-17 13:29N 29°45' W 095°10'0 0.3
2018-Apr-17 12:53N 29°45' W 095°10'2 4.6
2018-Apr-17 12:28N 29°44' W 095°08'2 4.4
2018-Apr-17 11:56N 29°45' W 095°06'2 4.4
2018-Apr-17 11:27N 29°44' W 095°03'2 4.1
2018-Apr-17 10:58N 29°44' W 095°01'0 0.1
2018-Apr-17 10:11N 29°44' W 095°01'0 0.0
2018-Apr-17 09:50N 29°44' W 095°01'0 0.0
2018-Apr-17 09:26N 29°44' W 095°01'0 0.0
2018-Apr-17 08:59N 29°44' W 095°01'0 0.0
2018-Apr-17 08:23N 29°44' W 095°01'1 3.5
2018-Apr-17 08:00N 29°44' W 095°03'3 5.2
2018-Apr-17 07:29N 29°46' W 095°05'3 5.1
2018-Apr-17 07:00N 29°44' W 095°07'3 5.1
2018-Apr-17 06:30N 29°45' W 095°10'0 0.5
2018-Apr-17 05:43N 29°45' W 095°10'0 0.0
2018-Apr-17 05:28N 29°45' W 095°10'0 0.1
2018-Apr-17 04:14N 29°45' W 095°10'1 4.1
2018-Apr-17 03:55N 29°44' W 095°09'2 5.5
2018-Apr-17 03:30N 29°45' W 095°06'3 5.4
2018-Apr-17 02:59N 29°47' W 095°04'1 0.1
2018-Apr-16 22:17N 29°48' W 095°04'0 0.1
2018-Apr-16 20:57N 29°47' W 095°04'0 1.0
2018-Apr-16 20:29N 29°47' W 095°04'0 0.6
2018-Apr-16 19:50N 29°47' W 095°04'0 0.2
2018-Apr-16 18:48N 29°47' W 095°04'1 4.5
2018-Apr-16 18:29N 29°46' W 095°05'1 0.2
2018-Apr-16 14:42N 29°46' W 095°06'0 0.1
2018-Apr-16 14:18N 29°46' W 095°06'1 1.9
2018-Apr-16 13:54N 29°46' W 095°05'0 0.4
2018-Apr-16 13:03N 29°46' W 095°05'0 5.0
2018-Apr-16 12:59N 29°46' W 095°04'2 4.8
2018-Apr-16 12:29N 29°44' W 095°02'2 4.6
2018-Apr-16 12:00N 29°42' W 095°01'3 5.0
2018-Apr-16 11:30N 29°40' W 094°59'3 5.2
2018-Apr-16 11:00N 29°38' W 094°58'2 3.3
2018-Apr-16 10:30N 29°37' W 094°59'2 3.1
2018-Apr-16 09:58N 29°37' W 095°01'1 1.1
2018-Apr-16 09:29N 29°37' W 095°02'0 0.0
2018-Apr-16 08:59N 29°37' W 095°01'0 0.0
2018-Apr-16 08:29N 29°37' W 095°01'0 0.1
2018-Apr-16 07:59N 29°37' W 095°02'0 0.0
2018-Apr-16 07:20N 29°37' W 095°02'0 0.0
2018-Apr-16 06:59N 29°37' W 095°02'0 0.0
2018-Apr-16 06:29N 29°37' W 095°02'0 0.0
2018-Apr-16 05:59N 29°37' W 095°02'0 0.0
2018-Apr-16 05:29N 29°37' W 095°02'0 0.0
2018-Apr-16 04:47N 29°37' W 095°02'0 0.0
2018-Apr-16 04:29N 29°37' W 095°02'0 0.0
2018-Apr-16 03:59N 29°37' W 095°02'0 0.0
2018-Apr-16 03:29N 29°37' W 095°02'0 0.0
2018-Apr-16 02:53N 29°37' W 095°02'0 0.0
2018-Apr-16 02:29N 29°37' W 095°02'0 0.0
2018-Apr-16 01:59N 29°37' W 095°02'0 0.0
2018-Apr-16 01:29N 29°37' W 095°02'0 0.0
2018-Apr-16 00:59N 29°37' W 095°02'0 0.0
2018-Apr-16 00:26N 29°37' W 095°02'0 0.1
2018-Apr-15 23:59N 29°37' W 095°01'1 2.7
2018-Apr-15 23:30N 29°37' W 095°00'2 4.4
2018-Apr-15 23:00N 29°37' W 094°58'3 5.6
2018-Apr-15 22:30N 29°40' W 094°59'3 5.6
2018-Apr-15 22:00N 29°42' W 095°01'3 5.0
2018-Apr-15 21:30N 29°44' W 095°03'3 1.2
2018-Apr-15 19:08N 29°45' W 095°06'1 5.8
2018-Apr-15 19:00N 29°46' W 095°05'2 4.3
2018-Apr-15 18:26N 29°44' W 095°03'1 2.0
2018-Apr-15 17:41N 29°44' W 095°01'1 3.2
2018-Apr-15 17:30N 29°44' W 095°02'2 4.1
2018-Apr-15 16:57N 29°45' W 095°04'2 1.7
2018-Apr-15 15:58N 29°47' W 095°05'0 0.0
2018-Apr-15 14:25N 29°47' W 095°05'1 0.3
2018-Apr-15 12:07N 29°46' W 095°05'1 4.9
2018-Apr-15 12:00N 29°46' W 095°05'0 0.1
2018-Apr-15 08:52N 29°47' W 095°05'1 1.1
2018-Apr-15 08:07N 29°46' W 095°05'0 2.9
2018-Apr-15 08:01N 29°46' W 095°05'1 0.5
2018-Apr-15 06:43N 29°45' W 095°06'1 5.2
2018-Apr-15 06:30N 29°46' W 095°05'1 0.2
2018-Apr-15 03:25N 29°46' W 095°05'1 0.5
2018-Apr-15 01:59N 29°45' W 095°06'1 1.1
2018-Apr-15 00:59N 29°46' W 095°05'0 0.4
2018-Apr-15 00:24N 29°46' W 095°05'1 1.6
2018-Apr-14 23:54N 29°46' W 095°04'1 1.3
2018-Apr-14 22:54N 29°45' W 095°06'2 0.9
2018-Apr-14 20:26N 29°47' W 095°04'0 0.2
2018-Apr-14 20:00N 29°47' W 095°04'0 0.2
2018-Apr-14 19:22N 29°47' W 095°04'1 3.0
2018-Apr-14 18:59N 29°46' W 095°05'2 4.5
2018-Apr-14 18:30N 29°44' W 095°06'1 1.4
2018-Apr-14 17:34N 29°44' W 095°08'0 0.0
2018-Apr-14 17:16N 29°44' W 095°08'0 0.0
2018-Apr-14 16:49N 29°44' W 095°08'0 0.0
2018-Apr-14 16:22N 29°44' W 095°08'0 0.0
2018-Apr-14 15:55N 29°44' W 095°08'0 0.0
2018-Apr-14 15:25N 29°44' W 095°08'0 0.0
2018-Apr-14 14:55N 29°44' W 095°08'1 0.0
2018-Apr-13 21:05N 29°44' W 095°07'1 5.0
2018-Apr-13 20:59N 29°44' W 095°07'2 4.6
2018-Apr-13 20:29N 29°46' W 095°05'1 0.7
2018-Apr-13 19:48N 29°46' W 095°05'1 1.4
2018-Apr-13 19:25N 29°47' W 095°04'0 0.0
2018-Apr-13 18:54N 29°47' W 095°04'0 0.0
2018-Apr-13 18:30N 29°47' W 095°04'0 0.0
2018-Apr-13 18:00N 29°47' W 095°04'0 0.0
2018-Apr-13 17:30N 29°47' W 095°04'  
Track history (hours):
 
Tides and Currents Weather Stations Pressure Air Temp Water Temp Dewpoint Dewpoint Depression Visibility Wind Speed Wind Dir Waves Ship Positions

Jimmy P Lafont

Owner: CALLAIS & SONS INC, CUTOFF, LA. More information available from US FCC via Universal Licensing System and Coast Guard Vessel Documentation Center.

Last reported at 2018-Apr-23 14:46 UTC. Time now 2018-Apr-24 02:45 UTC.
Position N 29°46' W 095°05'.

Length 21 m; draft 2.7 m.

Type: . MMSI: 367005230.

Date/timePositionNaut miles runAvg speedWind from/ knotsBaromVisibWave heightAir tempDewpointWater temp
2018-Apr-23 14:46N 29°46' W 095°05'0 0.0
2018-Apr-23 02:18N 29°46' W 095°05'0 0.7
2018-Apr-23 01:57N 29°46' W 095°06'0 0.0
2018-Apr-21 23:40N 29°46' W 095°05'1 6.0
2018-Apr-21 23:30N 29°47' W 095°04'0 0.0
2018-Apr-21 05:33N 29°46' W 095°05'3 4.1
2018-Apr-21 04:54N 29°44' W 095°07'2 4.4
2018-Apr-21 04:29N 29°44' W 095°09'2 3.7
2018-Apr-21 03:54N 29°45' W 095°11'2 3.7
2018-Apr-21 03:20N 29°43' W 095°13'3 0.1
2018-Apr-19 23:35N 29°44' W 095°10'0 4.8
2018-Apr-19 23:30N 29°44' W 095°09'2 4.6
2018-Apr-19 22:59N 29°44' W 095°07'2 5.1
2018-Apr-19 22:30N 29°46' W 095°05'1 0.1
2018-Apr-19 17:27N 29°47' W 095°04'1 0.2
2018-Apr-19 08:15N 29°46' W 095°06'1 4.0
2018-Apr-19 07:59N 29°47' W 095°05'1 0.2
2018-Apr-18 23:52N 29°45' W 095°06'0 0.1
2018-Apr-18 22:18N 29°45' W 095°06'1 0.1
2018-Apr-18 17:38N 29°46' W 095°05'1 5.0
2018-Apr-18 17:30N 29°46' W 095°05'1 1.4
2018-Apr-18 16:52N 29°47' W 095°04'0 0.0
2018-Apr-18 15:45N 29°47' W 095°04'0 0.0
2018-Apr-18 12:22N 29°47' W 095°04'2 0.2
2018-Apr-18 04:59N 29°46' W 095°05'3 6.4
2018-Apr-18 04:28N 29°44' W 095°09'3 6.2
2018-Apr-18 04:00N 29°44' W 095°12'0 0.0
2018-Apr-18 00:46N 29°45' W 095°12'2 4.6
2018-Apr-18 00:19N 29°44' W 095°09'2 3.7
2018-Apr-17 23:54N 29°44' W 095°08'2 5.2
2018-Apr-17 23:30N 29°45' W 095°06'2 4.3
2018-Apr-17 23:00N 29°47' W 095°04'0 0.3
2018-Apr-17 21:16N 29°47' W 095°04'1 3.3
2018-Apr-17 21:00N 29°47' W 095°05'1 0.3
2018-Apr-17 17:04N 29°46' W 095°06'0 0.3
2018-Apr-17 16:55N 29°46' W 095°06'0 0.1
2018-Apr-17 16:27N 29°46' W 095°06'2 3.6
2018-Apr-17 16:00N 29°44' W 095°07'3 5.2
2018-Apr-17 15:29N 29°45' W 095°10'4 4.6
2018-Apr-17 14:43N 29°44' W 095°14'0 0.0
2018-Apr-17 14:22N 29°44' W 095°14'2 3.0
2018-Apr-17 13:46N 29°45' W 095°12'2 6.0
2018-Apr-17 13:29N 29°45' W 095°10'0 0.3
2018-Apr-17 12:53N 29°45' W 095°10'2 4.6
2018-Apr-17 12:28N 29°44' W 095°08'2 4.4
2018-Apr-17 11:56N 29°45' W 095°06'2 4.4
2018-Apr-17 11:27N 29°44' W 095°03'2 4.1
2018-Apr-17 10:58N 29°44' W 095°01'0 0.1
2018-Apr-17 10:11N 29°44' W 095°01'0 0.0
2018-Apr-17 09:50N 29°44' W 095°01'0 0.0
2018-Apr-17 09:26N 29°44' W 095°01'0 0.0
2018-Apr-17 08:59N 29°44' W 095°01'0 0.0
2018-Apr-17 08:23N 29°44' W 095°01'1 3.5
2018-Apr-17 08:00N 29°44' W 095°03'3 5.2
2018-Apr-17 07:29N 29°46' W 095°05'3 5.1
2018-Apr-17 07:00N 29°44' W 095°07'3 5.1
2018-Apr-17 06:30N 29°45' W 095°10'0 0.5
2018-Apr-17 05:43N 29°45' W 095°10'0 0.0
2018-Apr-17 05:28N 29°45' W 095°10'0 0.1
2018-Apr-17 04:14N 29°45' W 095°10'1 4.1
2018-Apr-17 03:55N 29°44' W 095°09'2 5.5
2018-Apr-17 03:30N 29°45' W 095°06'3 5.4
2018-Apr-17 02:59N 29°47' W 095°04'1 0.1
2018-Apr-16 22:17N 29°48' W 095°04'0 0.1
2018-Apr-16 20:57N 29°47' W 095°04'0 1.0
2018-Apr-16 20:29N 29°47' W 095°04'0 0.6
2018-Apr-16 19:50N 29°47' W 095°04'0 0.2
2018-Apr-16 18:48N 29°47' W 095°04'1 4.5
2018-Apr-16 18:29N 29°46' W 095°05'1 0.2
2018-Apr-16 14:42N 29°46' W 095°06'0 0.1
2018-Apr-16 14:18N 29°46' W 095°06'1 1.9
2018-Apr-16 13:54N 29°46' W 095°05'0 0.4
2018-Apr-16 13:03N 29°46' W 095°05'0 5.0
2018-Apr-16 12:59N 29°46' W 095°04'2 4.8
2018-Apr-16 12:29N 29°44' W 095°02'2 4.6
2018-Apr-16 12:00N 29°42' W 095°01'3 5.0
2018-Apr-16 11:30N 29°40' W 094°59'3 5.2
2018-Apr-16 11:00N 29°38' W 094°58'2 3.3
2018-Apr-16 10:30N 29°37' W 094°59'2 3.1
2018-Apr-16 09:58N 29°37' W 095°01'1 1.1
2018-Apr-16 09:29N 29°37' W 095°02'0 0.0
2018-Apr-16 08:59N 29°37' W 095°01'0 0.0
2018-Apr-16 08:29N 29°37' W 095°01'0 0.1
2018-Apr-16 07:59N 29°37' W 095°02'0 0.0
2018-Apr-16 07:20N 29°37' W 095°02'0 0.0
2018-Apr-16 06:59N 29°37' W 095°02'0 0.0
2018-Apr-16 06:29N 29°37' W 095°02'0 0.0
2018-Apr-16 05:59N 29°37' W 095°02'0 0.0
2018-Apr-16 05:29N 29°37' W 095°02'0 0.0
2018-Apr-16 04:47N 29°37' W 095°02'0 0.0
2018-Apr-16 04:29N 29°37' W 095°02'0 0.0
2018-Apr-16 03:59N 29°37' W 095°02'0 0.0
2018-Apr-16 03:29N 29°37' W 095°02'0 0.0
2018-Apr-16 02:53N 29°37' W 095°02'0 0.0
2018-Apr-16 02:29N 29°37' W 095°02'0 0.0
2018-Apr-16 01:59N 29°37' W 095°02'0 0.0
2018-Apr-16 01:29N 29°37' W 095°02'0 0.0
2018-Apr-16 00:59N 29°37' W 095°02'0 0.0
2018-Apr-16 00:26N 29°37' W 095°02'0 0.1
2018-Apr-15 23:59N 29°37' W 095°01'1 2.7
2018-Apr-15 23:30N 29°37' W 095°00'2 4.4
2018-Apr-15 23:00N 29°37' W 094°58'3 5.6
2018-Apr-15 22:30N 29°40' W 094°59'3 5.6
2018-Apr-15 22:00N 29°42' W 095°01'3 5.0
2018-Apr-15 21:30N 29°44' W 095°03'3 1.2
2018-Apr-15 19:08N 29°45' W 095°06'1 5.8
2018-Apr-15 19:00N 29°46' W 095°05'2 4.3
2018-Apr-15 18:26N 29°44' W 095°03'1 2.0
2018-Apr-15 17:41N 29°44' W 095°01'1 3.2
2018-Apr-15 17:30N 29°44' W 095°02'2 4.1
2018-Apr-15 16:57N 29°45' W 095°04'2 1.7
2018-Apr-15 15:58N 29°47' W 095°05'0 0.0
2018-Apr-15 14:25N 29°47' W 095°05'1 0.3
2018-Apr-15 12:07N 29°46' W 095°05'1 4.9
2018-Apr-15 12:00N 29°46' W 095°05'0 0.1
2018-Apr-15 08:52N 29°47' W 095°05'1 1.1
2018-Apr-15 08:07N 29°46' W 095°05'0 2.9
2018-Apr-15 08:01N 29°46' W 095°05'1 0.5
2018-Apr-15 06:43N 29°45' W 095°06'1 5.2
2018-Apr-15 06:30N 29°46' W 095°05'1 0.2
2018-Apr-15 03:25N 29°46' W 095°05'1 0.5
2018-Apr-15 01:59N 29°45' W 095°06'1 1.1
2018-Apr-15 00:59N 29°46' W 095°05'0 0.4
2018-Apr-15 00:24N 29°46' W 095°05'1 1.6
2018-Apr-14 23:54N 29°46' W 095°04'1 1.3
2018-Apr-14 22:54N 29°45' W 095°06'2 0.9
2018-Apr-14 20:26N 29°47' W 095°04'0 0.2
2018-Apr-14 20:00N 29°47' W 095°04'0 0.2
2018-Apr-14 19:22N 29°47' W 095°04'1 3.0
2018-Apr-14 18:59N 29°46' W 095°05'2 4.5
2018-Apr-14 18:30N 29°44' W 095°06'1 1.4
2018-Apr-14 17:34N 29°44' W 095°08'0 0.0
2018-Apr-14 17:16N 29°44' W 095°08'0 0.0
2018-Apr-14 16:49N 29°44' W 095°08'0 0.0
2018-Apr-14 16:22N 29°44' W 095°08'0 0.0
2018-Apr-14 15:55N 29°44' W 095°08'0 0.0
2018-Apr-14 15:25N 29°44' W 095°08'0 0.0
2018-Apr-14 14:55N 29°44' W 095°08'1 0.0
2018-Apr-13 21:05N 29°44' W 095°07'1 5.0
2018-Apr-13 20:59N 29°44' W 095°07'2 4.6
2018-Apr-13 20:29N 29°46' W 095°05'1 0.7
2018-Apr-13 19:48N 29°46' W 095°05'1 1.4
2018-Apr-13 19:25N 29°47' W 095°04'0 0.0
2018-Apr-13 18:54N 29°47' W 095°04'0 0.0
2018-Apr-13 18:30N 29°47' W 095°04'0 0.0
2018-Apr-13 18:00N 29°47' W 095°04'0 0.0
2018-Apr-13 17:30N 29°47' W 095°04'  

Dump ship's entire track history